08:57
Airports
History
Links
Donate
Help keep this website running!
PayPal
Bitcoin
This page is community maintained. The information is intended for PC simulator navigation or reference.
Always use approved charts for navigation.
EDOC
Gardelegen
Gardelegen (EDOC)
Hansestadt Gardelegen, Sachsen-Anhalt, Germany (39638)
(C)
Lat/Lng:52° 31' 42.57" N / 11° 21' 9.44" E
52.528493 / 11.352621
Elevation:230'ft / 70mMSL
ID / ICAO:EDOC
Runways:1
Longest:8-26
Grass 547m / 1,795ft
Controlled:Yes
Nearby Weather08:50 GMT 2018-02-18
Nearby weather at EDVE, Braunschweig-Wolfsburg located 36.6 nautical miles from EDOC
Altimeter: 30.36
Visibility: 6.2 statute miles
Wind: 4 knots (from 140°)
Temp: 2°c / 36°f
Humidity: 74.7%

METAR: EDVE 180850Z 14004KT CAVOK 02/M02 Q1028

(Powered by phpweather)
Airport Radio Frequencies
Tower: 122.85
Nearby VORs <50NM
Nearby NDBs
Runway 8 / 26
Dimensions:547.2 x 39.9m 1795' x 131'ft
Surface:Grass
Runway 8 [A]Runway 26 [B]
Heading:083°TH 263°TH
Lat:
Lng:
52° 31' 41.64"N
11° 20' 54.87"E
52° 31' 43.5"N
11° 21' 24"E
User Notes and Comments
52° 31' 42.57" N / 11° 21' 9.44" E
Distance To
Airport ID:
Nearby Airports
(U) STENDAL BORSTEL 20.8 NM
EDOV ENE 70°
(C) Magdeburg Grass 33.4 NM
xDBM SSE 159°
(U) Magdeburg 33.5 NM
EDBM SSE 159°
(C) OSCHERSLEBEN 34.3 NM
EDOL S 190°
(U) Luechow Rehbeck 34.9 NM
EDHC NNW 345°
(C) Braunschweig-Wolfsburg 36.6 NM
EDVE ( WX ) WSW 246°
(C) SCHOENEBECK-Zackmuende 41.2 NM
EDOZ SSE 153°
VFR Chart
Flight Planning at SkyVector.com